sensor_id;sensor_type;location;lat;lon;timestamp;pressure;altitude;pressure_sealevel;temperature;humidity
60871;BME280;46714;50.118;14.462;2024-02-15T00:00:05;99375.47;;;6.87;100.00
60871;BME280;46714;50.118;14.462;2024-02-15T00:02:33;99374.59;;;6.87;100.00
60871;BME280;46714;50.118;14.462;2024-02-15T00:04:58;99380.00;;;6.87;100.00
60871;BME280;46714;50.118;14.462;2024-02-15T00:07:23;99376.28;;;6.88;100.00
60871;BME280;46714;50.118;14.462;2024-02-15T00:09:49;99373.59;;;6.88;100.00
60871;BME280;46714;50.118;14.462;2024-02-15T00:12:14;99371.72;;;6.88;100.00
60871;BME280;46714;50.118;14.462;2024-02-15T00:14:40;99379.84;;;6.88;100.00
60871;BME280;46714;50.118;14.462;2024-02-15T00:17:05;99372.56;;;6.89;100.00
60871;BME280;46714;50.118;14.462;2024-02-15T00:19:30;99379.66;;;6.90;100.00
60871;BME280;46714;50.118;14.462;2024-02-15T00:21:56;99372.00;;;6.93;100.00
60871;BME280;46714;50.118;14.462;2024-02-15T00:24:22;99370.16;;;6.94;100.00
60871;BME280;46714;50.118;14.462;2024-02-15T00:26:49;99370.16;;;6.94;100.00
60871;BME280;46714;50.118;14.462;2024-02-15T00:29:14;99367.91;;;6.98;100.00
60871;BME280;46714;50.118;14.462;2024-02-15T00:31:40;99366.03;;;6.98;100.00
60871;BME280;46714;50.118;14.462;2024-02-15T00:34:05;99367.06;;;6.97;100.00
60871;BME280;46714;50.118;14.462;2024-02-15T00:36:31;99357.25;;;6.96;100.00
60871;BME280;46714;50.118;14.462;2024-02-15T00:38:58;99363.88;;;6.93;100.00
60871;BME280;46714;50.118;14.462;2024-02-15T00:41:24;99364.25;;;6.90;100.00
60871;BME280;46714;50.118;14.462;2024-02-15T00:43:49;99355.97;;;6.92;100.00
60871;BME280;46714;50.118;14.462;2024-02-15T00:46:17;99357.19;;;6.89;100.00
60871;BME280;46714;50.118;14.462;2024-02-15T00:48:43;99351.78;;;6.89;100.00
60871;BME280;46714;50.118;14.462;2024-02-15T00:51:08;99350.06;;;6.88;100.00
60871;BME280;46714;50.118;14.462;2024-02-15T00:53:33;99350.91;;;6.89;100.00
60871;BME280;46714;50.118;14.462;2024-02-15T00:55:59;99343.16;;;6.86;100.00
60871;BME280;46714;50.118;14.462;2024-02-15T00:58:24;99352.94;;;6.87;100.00
60871;BME280;46714;50.118;14.462;2024-02-15T01:00:52;99352.94;;;6.87;100.00
60871;BME280;46714;50.118;14.462;2024-02-15T01:03:20;99349.59;;;6.85;100.00
60871;BME280;46714;50.118;14.462;2024-02-15T01:05:46;99349.59;;;6.85;100.00
60871;BME280;46714;50.118;14.462;2024-02-15T01:08:11;99352.28;;;6.85;100.00
60871;BME280;46714;50.118;14.462;2024-02-15T01:10:37;99343.56;;;6.83;100.00
60871;BME280;46714;50.118;14.462;2024-02-15T01:13:02;99347.94;;;6.84;100.00
60871;BME280;46714;50.118;14.462;2024-02-15T01:15:27;99343.34;;;6.84;100.00
60871;BME280;46714;50.118;14.462;2024-02-15T01:17:53;99342.13;;;6.87;100.00
60871;BME280;46714;50.118;14.462;2024-02-15T01:20:18;99335.88;;;6.86;100.00
60871;BME280;46714;50.118;14.462;2024-02-15T01:22:46;99339.41;;;6.87;100.00
60871;BME280;46714;50.118;14.462;2024-02-15T01:25:11;99331.69;;;6.84;100.00
60871;BME280;46714;50.118;14.462;2024-02-15T01:27:37;99332.72;;;6.83;100.00
60871;BME280;46714;50.118;14.462;2024-02-15T01:30:04;99325.63;;;6.82;100.00
60871;BME280;46714;50.118;14.462;2024-02-15T01:32:30;99321.25;;;6.81;100.00
60871;BME280;46714;50.118;14.462;2024-02-15T01:34:56;99326.66;;;6.81;100.00
60871;BME280;46714;50.118;14.462;2024-02-15T01:37:21;99322.91;;;6.82;100.00
60871;BME280;46714;50.118;14.462;2024-02-15T01:39:46;99319.38;;;6.81;100.00
60871;BME280;46714;50.118;14.462;2024-02-15T01:42:12;99318.91;;;6.78;100.00
60871;BME280;46714;50.118;14.462;2024-02-15T01:44:39;99316.00;;;6.79;100.00
60871;BME280;46714;50.118;14.462;2024-02-15T01:47:05;99317.06;;;6.78;100.00
60871;BME280;46714;50.118;14.462;2024-02-15T01:49:31;99314.34;;;6.78;100.00
60871;BME280;46714;50.118;14.462;2024-02-15T01:51:57;99316.19;;;6.78;100.00
60871;BME280;46714;50.118;14.462;2024-02-15T01:54:25;99316.19;;;6.78;100.00
60871;BME280;46714;50.118;14.462;2024-02-15T01:56:51;99307.25;;;6.77;100.00
60871;BME280;46714;50.118;14.462;2024-02-15T01:59:17;99309.13;;;6.77;100.00
60871;BME280;46714;50.118;14.462;2024-02-15T02:01:43;99309.28;;;6.75;100.00
60871;BME280;46714;50.118;14.462;2024-02-15T02:04:09;99304.94;;;6.74;100.00
60871;BME280;46714;50.118;14.462;2024-02-15T02:06:37;99308.63;;;6.73;100.00
60871;BME280;46714;50.118;14.462;2024-02-15T02:09:02;99303.22;;;6.73;100.00
60871;BME280;46714;50.118;14.462;2024-02-15T02:11:28;99306.78;;;6.74;100.00
60871;BME280;46714;50.118;14.462;2024-02-15T02:13:54;99305.94;;;6.73;100.00
60871;BME280;46714;50.118;14.462;2024-02-15T02:16:30;99303.44;;;6.71;100.00
60871;BME280;46714;50.118;14.462;2024-02-15T02:19:04;99298.03;;;6.71;100.00
60871;BME280;46714;50.118;14.462;2024-02-15T02:21:34;99296.97;;;6.72;100.00
60871;BME280;46714;50.118;14.462;2024-02-15T02:24:02;99294.28;;;6.72;100.00
60871;BME280;46714;50.118;14.462;2024-02-15T02:26:33;99297.63;;;6.75;100.00
60871;BME280;46714;50.118;14.462;2024-02-15T02:28:59;99295.41;;;6.78;100.00
60871;BME280;46714;50.118;14.462;2024-02-15T02:31:25;99295.22;;;6.80;100.00
60871;BME280;46714;50.118;14.462;2024-02-15T02:33:53;99301.28;;;6.82;100.00
60871;BME280;46714;50.118;14.462;2024-02-15T02:36:19;99298.56;;;6.82;100.00
60871;BME280;46714;50.118;14.462;2024-02-15T02:38:45;99289.63;;;6.81;100.00
60871;BME280;46714;50.118;14.462;2024-02-15T02:41:13;99300.06;;;6.84;100.00
60871;BME280;46714;50.118;14.462;2024-02-15T02:43:39;99305.28;;;6.86;100.00
60871;BME280;46714;50.118;14.462;2024-02-15T02:46:05;99304.25;;;6.87;100.00
60871;BME280;46714;50.118;14.462;2024-02-15T02:48:31;99305.94;;;6.88;100.00
60871;BME280;46714;50.118;14.462;2024-02-15T02:50:57;99308.81;;;6.86;100.00
60871;BME280;46714;50.118;14.462;2024-02-15T02:53:22;99301.53;;;6.87;100.00
60871;BME280;46714;50.118;14.462;2024-02-15T02:55:49;99309.66;;;6.87;100.00
60871;BME280;46714;50.118;14.462;2024-02-15T02:58:14;99306.78;;;6.88;100.00
60871;BME280;46714;50.118;14.462;2024-02-15T03:00:40;99308.09;;;6.92;100.00
60871;BME280;46714;50.118;14.462;2024-02-15T03:03:05;99314.34;;;6.93;100.00
60871;BME280;46714;50.118;14.462;2024-02-15T03:05:30;99316.88;;;6.95;100.00
60871;BME280;46714;50.118;14.462;2024-02-15T03:07:56;99309.75;;;6.93;100.00
60871;BME280;46714;50.118;14.462;2024-02-15T03:10:21;99309.75;;;6.93;100.00
60871;BME280;46714;50.118;14.462;2024-02-15T03:12:49;99309.75;;;6.93;100.00
60871;BME280;46714;50.118;14.462;2024-02-15T03:15:14;99305.22;;;6.94;100.00
60871;BME280;46714;50.118;14.462;2024-02-15T03:17:40;99303.50;;;6.93;100.00
60871;BME280;46714;50.118;14.462;2024-02-15T03:20:06;99307.03;;;6.93;100.00
60871;BME280;46714;50.118;14.462;2024-02-15T03:22:37;99307.91;;;6.94;100.00
60871;BME280;46714;50.118;14.462;2024-02-15T03:25:03;99308.91;;;6.93;100.00
60871;BME280;46714;50.118;14.462;2024-02-15T03:27:32;99305.22;;;6.94;100.00
60871;BME280;46714;50.118;14.462;2024-02-15T03:29:58;99300.81;;;6.93;100.00
60871;BME280;46714;50.118;14.462;2024-02-15T03:32:25;99305.22;;;6.94;100.00
60871;BME280;46714;50.118;14.462;2024-02-15T03:34:51;99304.34;;;6.93;100.00
60871;BME280;46714;50.118;14.462;2024-02-15T03:37:16;99305.22;;;6.94;100.00
60871;BME280;46714;50.118;14.462;2024-02-15T03:39:43;99306.03;;;6.95;100.00
60871;BME280;46714;50.118;14.462;2024-02-15T03:42:08;99305.22;;;6.94;100.00
60871;BME280;46714;50.118;14.462;2024-02-15T03:44:34;99301.63;;;6.93;100.00
60871;BME280;46714;50.118;14.462;2024-02-15T03:46:59;99311.63;;;6.93;100.00
60871;BME280;46714;50.118;14.462;2024-02-15T03:49:25;99306.22;;;6.93;100.00
60871;BME280;46714;50.118;14.462;2024-02-15T03:51:50;99308.75;;;6.95;100.00
60871;BME280;46714;50.118;14.462;2024-02-15T03:54:15;99313.31;;;6.94;100.00
60871;BME280;46714;50.118;14.462;2024-02-15T03:56:47;99315.81;;;6.96;100.00
60871;BME280;46714;50.118;14.462;2024-02-15T03:59:20;99307.69;;;6.96;100.00
60871;BME280;46714;50.118;14.462;2024-02-15T04:01:54;99311.25;;;6.96;100.00
60871;BME280;46714;50.118;14.462;2024-02-15T04:04:21;99305.81;;;6.96;100.00
60871;BME280;46714;50.118;14.462;2024-02-15T04:06:47;99317.50;;;6.97;100.00
60871;BME280;46714;50.118;14.462;2024-02-15T04:09:13;99306.47;;;6.98;100.00
60871;BME280;46714;50.118;14.462;2024-02-15T04:11:39;99317.13;;;7.00;100.00
60871;BME280;46714;50.118;14.462;2024-02-15T04:14:04;99324.41;;;6.99;100.00
60871;BME280;46714;50.118;14.462;2024-02-15T04:16:30;99319.00;;;6.99;100.00
60871;BME280;46714;50.118;14.462;2024-02-15T04:18:56;99315.47;;;6.99;100.00
60871;BME280;46714;50.118;14.462;2024-02-15T04:21:24;99315.47;;;6.99;100.00
60871;BME280;46714;50.118;14.462;2024-02-15T04:23:49;99316.28;;;6.99;100.00
60871;BME280;46714;50.118;14.462;2024-02-15T04:26:16;99317.97;;;7.00;100.00
60871;BME280;46714;50.118;14.462;2024-02-15T04:28:42;99303.59;;;7.00;100.00
60871;BME280;46714;50.118;14.462;2024-02-15T04:31:07;99301.06;;;6.98;100.00
60871;BME280;46714;50.118;14.462;2024-02-15T04:33:33;99304.81;;;6.97;100.00
60871;BME280;46714;50.118;14.462;2024-02-15T04:35:59;99303.13;;;6.96;100.00
60871;BME280;46714;50.118;14.462;2024-02-15T04:38:27;99307.53;;;6.97;100.00
60871;BME280;46714;50.118;14.462;2024-02-15T04:40:53;99310.22;;;6.97;100.00
60871;BME280;46714;50.118;14.462;2024-02-15T04:43:19;99313.59;;;6.99;100.00
60871;BME280;46714;50.118;14.462;2024-02-15T04:45:45;99311.91;;;6.98;100.00
60871;BME280;46714;50.118;14.462;2024-02-15T04:48:10;99319.19;;;6.98;100.00
60871;BME280;46714;50.118;14.462;2024-02-15T04:50:38;99318.16;;;6.99;100.00
60871;BME280;46714;50.118;14.462;2024-02-15T04:53:07;99316.28;;;6.99;100.00
60871;BME280;46714;50.118;14.462;2024-02-15T04:55:33;99309.19;;;6.98;100.00
60871;BME280;46714;50.118;14.462;2024-02-15T04:57:58;99319.00;;;6.99;100.00
60871;BME280;46714;50.118;14.462;2024-02-15T05:00:25;99312.56;;;7.00;100.00
60871;BME280;46714;50.118;14.462;2024-02-15T05:02:50;99320.66;;;7.00;100.00
60871;BME280;46714;50.118;14.462;2024-02-15T05:05:16;99320.50;;;7.02;100.00
60871;BME280;46714;50.118;14.462;2024-02-15T05:07:42;99319.66;;;7.01;100.00
60871;BME280;46714;50.118;14.462;2024-02-15T05:10:08;99320.31;;;7.03;100.00
60871;BME280;46714;50.118;14.462;2024-02-15T05:12:35;99322.63;;;7.06;100.00
60871;BME280;46714;50.118;14.462;2024-02-15T05:15:02;99317.03;;;7.08;100.00
60871;BME280;46714;50.118;14.462;2024-02-15T05:17:35;99313.13;;;7.10;100.00
60871;BME280;46714;50.118;14.462;2024-02-15T05:20:01;99322.91;;;7.11;100.00
60871;BME280;46714;50.118;14.462;2024-02-15T05:22:35;99316.47;;;7.12;100.00
60871;BME280;46714;50.118;14.462;2024-02-15T05:25:01;99315.25;;;7.15;100.00
60871;BME280;46714;50.118;14.462;2024-02-15T05:27:27;99314.22;;;7.16;100.00
60871;BME280;46714;50.118;14.462;2024-02-15T05:29:52;99314.88;;;7.18;100.00
60871;BME280;46714;50.118;14.462;2024-02-15T05:32:18;99320.09;;;7.20;100.00
60871;BME280;46714;50.118;14.462;2024-02-15T05:34:45;99316.16;;;7.22;100.00
60871;BME280;46714;50.118;14.462;2024-02-15T05:37:11;99314.31;;;7.23;100.00
60871;BME280;46714;50.118;14.462;2024-02-15T05:39:37;99313.47;;;7.22;100.00
60871;BME280;46714;50.118;14.462;2024-02-15T05:42:02;99313.66;;;7.21;100.00
60871;BME280;46714;50.118;14.462;2024-02-15T05:44:28;99318.41;;;7.19;100.00
60871;BME280;46714;50.118;14.462;2024-02-15T05:46:53;99318.41;;;7.19;100.00
60871;BME280;46714;50.118;14.462;2024-02-15T05:49:18;99321.31;;;7.17;100.00
60871;BME280;46714;50.118;14.462;2024-02-15T05:51:44;99328.88;;;7.22;100.00
60871;BME280;46714;50.118;14.462;2024-02-15T05:54:10;99319.53;;;7.24;100.00
60871;BME280;46714;50.118;14.462;2024-02-15T05:56:36;99323.06;;;7.25;100.00
60871;BME280;46714;50.118;14.462;2024-02-15T05:59:01;99325.97;;;7.23;100.00
60871;BME280;46714;50.118;14.462;2024-02-15T06:01:35;99323.47;;;7.22;100.00
60871;BME280;46714;50.118;14.462;2024-02-15T06:04:00;99330.94;;;7.20;100.00
60871;BME280;46714;50.118;14.462;2024-02-15T06:06:26;99328.41;;;7.18;100.00
60871;BME280;46714;50.118;14.462;2024-02-15T06:08:51;99328.22;;;7.20;100.00
60871;BME280;46714;50.118;14.462;2024-02-15T06:11:19;99326.44;;;7.27;100.00
60871;BME280;46714;50.118;14.462;2024-02-15T06:13:45;99336.88;;;7.30;100.00
60871;BME280;46714;50.118;14.462;2024-02-15T06:16:11;99331.47;;;7.30;100.00
60871;BME280;46714;50.118;14.462;2024-02-15T06:18:36;99336.88;;;7.30;100.00
60871;BME280;46714;50.118;14.462;2024-02-15T06:21:02;99336.88;;;7.30;100.00
60871;BME280;46714;50.118;14.462;2024-02-15T06:23:28;99338.38;;;7.32;100.00
60871;BME280;46714;50.118;14.462;2024-02-15T06:25:54;99335.66;;;7.32;100.00
60871;BME280;46714;50.118;14.462;2024-02-15T06:28:21;99341.06;;;7.32;100.00
60871;BME280;46714;50.118;14.462;2024-02-15T06:31:07;99334.81;;;7.32;100.00
60871;BME280;46714;50.118;14.462;2024-02-15T06:33:52;99334.00;;;7.31;100.00
60871;BME280;46714;50.118;14.462;2024-02-15T06:36:39;99341.28;;;7.31;100.00
60871;BME280;46714;50.118;14.462;2024-02-15T06:39:34;99344.00;;;7.31;100.00
60871;BME280;46714;50.118;14.462;2024-02-15T06:42:03;99351.06;;;7.32;100.00
60871;BME280;46714;50.118;14.462;2024-02-15T06:44:29;99350.25;;;7.31;100.00
60871;BME280;46714;50.118;14.462;2024-02-15T06:46:54;99359.84;;;7.34;100.00
60871;BME280;46714;50.118;14.462;2024-02-15T06:49:21;99362.38;;;7.36;100.00
60871;BME280;46714;50.118;14.462;2024-02-15T06:51:49;99357.63;;;7.38;100.00
60871;BME280;46714;50.118;14.462;2024-02-15T06:54:15;99351.34;;;7.37;100.00
60871;BME280;46714;50.118;14.462;2024-02-15T06:56:43;99358.44;;;7.38;100.00
60871;BME280;46714;50.118;14.462;2024-02-15T06:59:11;99354.13;;;7.44;100.00
60871;BME280;46714;50.118;14.462;2024-02-15T07:01:39;99351.06;;;7.47;100.00
60871;BME280;46714;50.118;14.462;2024-02-15T07:04:07;99352.34;;;7.51;100.00
60871;BME280;46714;50.118;14.462;2024-02-15T07:06:33;99353.91;;;7.60;100.00
60871;BME280;46714;50.118;14.462;2024-02-15T07:09:00;99347.91;;;7.65;100.00
60871;BME280;46714;50.118;14.462;2024-02-15T07:11:25;99346.50;;;7.69;100.00
60871;BME280;46714;50.118;14.462;2024-02-15T07:13:50;99355.28;;;7.71;100.00
60871;BME280;46714;50.118;14.462;2024-02-15T07:16:19;99358.25;;;7.76;100.00
60871;BME280;46714;50.118;14.462;2024-02-15T07:18:45;99364.13;;;7.80;100.00
60871;BME280;46714;50.118;14.462;2024-02-15T07:21:11;99362.72;;;7.84;100.00
60871;BME280;46714;50.118;14.462;2024-02-15T07:23:39;99365.22;;;7.85;100.00
60871;BME280;46714;50.118;14.462;2024-02-15T07:26:07;99363.16;;;7.87;100.00
60871;BME280;46714;50.118;14.462;2024-02-15T07:28:33;99368.00;;;7.92;100.00
60871;BME280;46714;50.118;14.462;2024-02-15T07:30:59;99371.19;;;7.95;100.00
60871;BME280;46714;50.118;14.462;2024-02-15T07:33:27;99373.09;;;8.02;100.00
60871;BME280;46714;50.118;14.462;2024-02-15T07:35:53;99378.97;;;8.05;100.00
60871;BME280;46714;50.118;14.462;2024-02-15T07:38:19;99373.16;;;8.08;100.00
60871;BME280;46714;50.118;14.462;2024-02-15T07:40:47;99368.22;;;8.12;100.00
60871;BME280;46714;50.118;14.462;2024-02-15T07:43:14;99367.81;;;8.15;100.00
60871;BME280;46714;50.118;14.462;2024-02-15T07:45:39;99367.88;;;8.22;100.00
60871;BME280;46714;50.118;14.462;2024-02-15T07:48:05;99369.00;;;8.27;100.00
60871;BME280;46714;50.118;14.462;2024-02-15T07:50:31;99371.75;;;8.34;100.00
60871;BME280;46714;50.118;14.462;2024-02-15T07:52:56;99368.09;;;8.42;100.00
60871;BME280;46714;50.118;14.462;2024-02-15T07:55:22;99368.16;;;8.48;100.00
60871;BME280;46714;50.118;14.462;2024-02-15T07:57:49;99370.28;;;8.53;100.00
60871;BME280;46714;50.118;14.462;2024-02-15T08:00:18;99364.06;;;8.59;100.00
60871;BME280;46714;50.118;14.462;2024-02-15T08:02:43;99354.41;;;8.56;100.00
60871;BME280;46714;50.118;14.462;2024-02-15T08:05:10;99362.25;;;8.66;100.00
60871;BME280;46714;50.118;14.462;2024-02-15T08:07:37;99365.38;;;8.70;100.00
60871;BME280;46714;50.118;14.462;2024-02-15T08:10:15;99359.75;;;8.71;100.00
60871;BME280;46714;50.118;14.462;2024-02-15T08:12:45;99358.53;;;8.74;100.00
60871;BME280;46714;50.118;14.462;2024-02-15T08:15:11;99353.75;;;8.76;100.00
60871;BME280;46714;50.118;14.462;2024-02-15T08:17:41;99356.69;;;8.81;100.00
60871;BME280;46714;50.118;14.462;2024-02-15T08:20:07;99363.41;;;8.85;100.00
60871;BME280;46714;50.118;14.462;2024-02-15T08:22:36;99359.44;;;8.88;100.00
60871;BME280;46714;50.118;14.462;2024-02-15T08:25:08;99364.47;;;8.91;100.00
60871;BME280;46714;50.118;14.462;2024-02-15T08:27:38;99356.78;;;8.94;100.00
60871;BME280;46714;50.118;14.462;2024-02-15T08:30:09;99362.03;;;8.96;100.00
60871;BME280;46714;50.118;14.462;2024-02-15T08:32:38;99358.72;;;9.00;100.00
60871;BME280;46714;50.118;14.462;2024-02-15T08:35:05;99355.59;;;9.04;100.00
60871;BME280;46714;50.118;14.462;2024-02-15T08:37:31;99359.13;;;9.04;100.00
60871;BME280;46714;50.118;14.462;2024-02-15T08:39:59;99351.44;;;9.08;100.00
60871;BME280;46714;50.118;14.462;2024-02-15T08:42:25;99352.91;;;9.10;100.00
60871;BME280;46714;50.118;14.462;2024-02-15T08:44:52;99363.16;;;9.15;100.00
60871;BME280;46714;50.118;14.462;2024-02-15T08:47:17;99367.16;;;9.19;100.00
60871;BME280;46714;50.118;14.462;2024-02-15T08:49:42;99364.22;;;9.20;100.00
60871;BME280;46714;50.118;14.462;2024-02-15T08:52:08;99366.16;;;9.27;100.00
60871;BME280;46714;50.118;14.462;2024-02-15T08:54:33;99361.59;;;9.34;100.00
60871;BME280;46714;50.118;14.462;2024-02-15T08:56:59;99364.53;;;9.39;100.00
60871;BME280;46714;50.118;14.462;2024-02-15T08:59:26;99365.81;;;9.43;100.00
60871;BME280;46714;50.118;14.462;2024-02-15T09:01:53;99357.03;;;9.48;100.00
60871;BME280;46714;50.118;14.462;2024-02-15T09:04:19;99364.41;;;9.54;100.00
60871;BME280;46714;50.118;14.462;2024-02-15T09:06:46;99358.56;;;9.63;100.00
60871;BME280;46714;50.118;14.462;2024-02-15T09:09:12;99360.28;;;9.71;100.00
60871;BME280;46714;50.118;14.462;2024-02-15T09:11:37;99356.31;;;9.74;100.00
60871;BME280;46714;50.118;14.462;2024-02-15T09:14:02;99365.97;;;9.83;100.00
60871;BME280;46714;50.118;14.462;2024-02-15T09:16:28;99354.88;;;9.91;100.00
60871;BME280;46714;50.118;14.462;2024-02-15T09:18:53;99361.59;;;10.02;100.00
60871;BME280;46714;50.118;14.462;2024-02-15T09:21:18;99351.78;;;10.07;100.00
60871;BME280;46714;50.118;14.462;2024-02-15T09:23:46;99348.66;;;10.11;100.00
60871;BME280;46714;50.118;14.462;2024-02-15T09:26:13;99357.84;;;10.16;100.00
60871;BME280;46714;50.118;14.462;2024-02-15T09:28:39;99360.38;;;10.18;100.00
60871;BME280;46714;50.118;14.462;2024-02-15T09:31:05;99345.31;;;10.22;100.00
60871;BME280;46714;50.118;14.462;2024-02-15T09:33:30;99351.41;;;10.24;100.00
60871;BME280;46714;50.118;14.462;2024-02-15T09:35:56;99347.19;;;10.28;100.00
60871;BME280;46714;50.118;14.462;2024-02-15T09:38:21;99354.75;;;10.33;100.00
60871;BME280;46714;50.118;14.462;2024-02-15T09:40:49;99356.84;;;10.31;100.00
60871;BME280;46714;50.118;14.462;2024-02-15T09:43:15;99353.72;;;10.34;100.00
60871;BME280;46714;50.118;14.462;2024-02-15T09:45:41;99361.47;;;10.30;100.00
60871;BME280;46714;50.118;14.462;2024-02-15T09:48:06;99356.41;;;10.27;100.00
60871;BME280;46714;50.118;14.462;2024-02-15T09:50:35;99362.50;;;10.29;100.00
60871;BME280;46714;50.118;14.462;2024-02-15T09:53:04;99364.38;;;10.35;100.00
60871;BME280;46714;50.118;14.462;2024-02-15T09:55:31;99366.06;;;10.36;100.00
60871;BME280;46714;50.118;14.462;2024-02-15T09:57:59;99367.34;;;10.40;100.00
60871;BME280;46714;50.118;14.462;2024-02-15T10:00:24;99376.13;;;10.42;100.00
60871;BME280;46714;50.118;14.462;2024-02-15T10:02:50;99373.19;;;10.44;100.00
60871;BME280;46714;50.118;14.462;2024-02-15T10:05:20;99372.34;;;10.50;100.00
60871;BME280;46714;50.118;14.462;2024-02-15T10:07:46;99375.50;;;10.54;100.00
60871;BME280;46714;50.118;14.462;2024-02-15T10:10:18;99367.75;;;10.57;100.00
60871;BME280;46714;50.118;14.462;2024-02-15T10:12:48;99373.00;;;10.59;100.00
60871;BME280;46714;50.118;14.462;2024-02-15T10:15:37;99375.28;;;10.62;100.00
60871;BME280;46714;50.118;14.462;2024-02-15T10:18:04;99373.19;;;10.64;100.00
60871;BME280;46714;50.118;14.462;2024-02-15T10:20:36;99371.72;;;10.68;100.00
60871;BME280;46714;50.118;14.462;2024-02-15T10:23:13;99368.56;;;10.71;100.00
60871;BME280;46714;50.118;14.462;2024-02-15T10:25:42;99366.69;;;10.72;100.00
60871;BME280;46714;50.118;14.462;2024-02-15T10:28:11;99371.50;;;10.76;100.00
60871;BME280;46714;50.118;14.462;2024-02-15T10:30:38;99361.22;;;10.78;100.00
60871;BME280;46714;50.118;14.462;2024-02-15T10:33:05;99362.28;;;10.84;100.00
60871;BME280;46714;50.118;14.462;2024-02-15T10:35:32;99356.84;;;10.90;100.00
60871;BME280;46714;50.118;14.462;2024-02-15T10:38:06;99355.75;;;10.98;100.00
60871;BME280;46714;50.118;14.462;2024-02-15T10:40:32;99346.31;;;11.07;100.00
60871;BME280;46714;50.118;14.462;2024-02-15T10:42:58;99348.59;;;11.17;100.00
60871;BME280;46714;50.118;14.462;2024-02-15T10:45:24;99343.31;;;11.22;100.00
60871;BME280;46714;50.118;14.462;2024-02-15T10:47:50;99337.84;;;11.29;100.00
60871;BME280;46714;50.118;14.462;2024-02-15T10:50:17;99339.53;;;11.37;100.00
60871;BME280;46714;50.118;14.462;2024-02-15T10:53:00;99338.63;;;11.43;100.00
60871;BME280;46714;50.118;14.462;2024-02-15T10:55:48;99344.06;;;11.49;100.00
60871;BME280;46714;50.118;14.462;2024-02-15T10:58:23;99329.56;;;11.56;100.00
60871;BME280;46714;50.118;14.462;2024-02-15T11:00:56;99327.66;;;11.63;100.00
60871;BME280;46714;50.118;14.462;2024-02-15T11:03:25;99335.97;;;11.74;100.00
60871;BME280;46714;50.118;14.462;2024-02-15T11:06:00;99322.53;;;11.80;100.00
60871;BME280;46714;50.118;14.462;2024-02-15T11:08:31;99321.03;;;11.84;100.00
60871;BME280;46714;50.118;14.462;2024-02-15T11:10:57;99325.03;;;11.88;100.00
60871;BME280;46714;50.118;14.462;2024-02-15T11:13:24;99317.25;;;11.91;100.00
60871;BME280;46714;50.118;14.462;2024-02-15T11:15:49;99322.88;;;11.97;100.00
60871;BME280;46714;50.118;14.462;2024-02-15T11:21:11;99313.91;;;11.89;100.00
60871;BME280;46714;50.118;14.462;2024-02-15T11:23:37;99314.09;;;11.88;100.00
60871;BME280;46714;50.118;14.462;2024-02-15T11:26:03;99314.28;;;11.86;100.00
60871;BME280;46714;50.118;14.462;2024-02-15T11:30:55;99299.81;;;11.86;100.00
60871;BME280;46714;50.118;14.462;2024-02-15T11:33:25;99294.81;;;11.89;100.00
60871;BME280;46714;50.118;14.462;2024-02-15T11:36:09;99299.44;;;11.89;100.00
60871;BME280;46714;50.118;14.462;2024-02-15T11:38:36;99301.09;;;11.90;100.00
60871;BME280;46714;50.118;14.462;2024-02-15T11:41:06;99297.09;;;11.92;100.00
60871;BME280;46714;50.118;14.462;2024-02-15T11:46:15;99295.97;;;12.00;100.00
60871;BME280;46714;50.118;14.462;2024-02-15T11:48:43;99299.94;;;12.04;100.00
60871;BME280;46714;50.118;14.462;2024-02-15T11:54:16;99295.09;;;12.06;100.00
60871;BME280;46714;50.118;14.462;2024-02-15T11:59:37;99299.56;;;12.01;100.00
60871;BME280;46714;50.118;14.462;2024-02-15T12:02:08;99290.50;;;12.00;100.00
60871;BME280;46714;50.118;14.462;2024-02-15T12:04:52;99291.53;;;12.06;100.00
60871;BME280;46714;50.118;14.462;2024-02-15T12:07:36;99290.47;;;12.07;100.00
60871;BME280;46714;50.118;14.462;2024-02-15T12:10:20;99291.31;;;12.07;100.00
60871;BME280;46714;50.118;14.462;2024-02-15T12:13:04;99280.00;;;12.04;100.00
60871;BME280;46714;50.118;14.462;2024-02-15T12:15:55;99285.00;;;12.07;100.00
60871;BME280;46714;50.118;14.462;2024-02-15T12:18:43;99283.69;;;12.16;100.00
60871;BME280;46714;50.118;14.462;2024-02-15T12:21:11;99278.16;;;12.23;100.00
60871;BME280;46714;50.118;14.462;2024-02-15T12:23:41;99277.06;;;12.30;100.00
60871;BME280;46714;50.118;14.462;2024-02-15T12:26:06;99281.41;;;12.38;100.00
60871;BME280;46714;50.118;14.462;2024-02-15T12:28:33;99272.38;;;12.38;100.00
60871;BME280;46714;50.118;14.462;2024-02-15T12:31:00;99269.25;;;12.34;100.00
60871;BME280;46714;50.118;14.462;2024-02-15T12:33:26;99268.22;;;12.35;100.00
60871;BME280;46714;50.118;14.462;2024-02-15T12:35:52;99269.25;;;12.34;100.00
60871;BME280;46714;50.118;14.462;2024-02-15T12:38:30;99271.63;;;12.30;100.00
60871;BME280;46714;50.118;14.462;2024-02-15T12:40:55;99271.22;;;12.27;100.00
60871;BME280;46714;50.118;14.462;2024-02-15T12:43:21;99272.50;;;12.24;100.00
60871;BME280;46714;50.118;14.462;2024-02-15T12:45:47;99264.38;;;12.18;100.00
60871;BME280;46714;50.118;14.462;2024-02-15T12:48:12;99263.38;;;12.12;100.00
60871;BME280;46714;50.118;14.462;2024-02-15T12:50:40;99273.25;;;12.06;100.00
60871;BME280;46714;50.118;14.462;2024-02-15T12:53:05;99267.66;;;12.01;100.00
60871;BME280;46714;50.118;14.462;2024-02-15T12:55:33;99263.06;;;11.95;100.00
60871;BME280;46714;50.118;14.462;2024-02-15T12:58:04;99270.00;;;11.91;100.00
60871;BME280;46714;50.118;14.462;2024-02-15T13:00:33;99257.00;;;11.86;100.00
60871;BME280;46714;50.118;14.462;2024-02-15T13:03:04;99251.38;;;11.81;100.00